Weather at Air Force Captain Jose A Quinones Gonzales International Airport

Public forecast

Using degrees Celsius for public forecast. Weather courtesy of forecast.io.

Current aviation weather report (METAR) for Air Force Captain Jose A Quinones Gonzales International Airport

Report is more than 6 hours old.

2022/11/14 15:00 (retrieved 2 years ago)

SPHI 141500Z VRB04KT CAVOK 22/14 Q1015 RMK BIRD HAZARD RWY 19/01 PP000

Aviation forecast (TAF) for Air Force Captain Jose A Quinones Gonzales International Airport

Forecast is more than 12 hours old.

2023/02/22 18:33 (retrieved 1 year ago)

TAF SPHI 221715Z 2218/2318 22007KT CAVOK TX30/2219Z TN23/2311Z TEMPO 2222/2301 22017KT BECMG 2315/2317 22018KT